首页
METAR-TAF:

METAR-TAF

机场 :

Friday Harbor Airport

Friday Harbor, 华盛顿, 美国

纬度: 48-31-13N, 经度: 123-01-31W, 海拔: 33米

当前天气观测

该预报发布于29分钟前的23:53 UTC
风速6节,风向
温度 17°C
湿度 36%
气压 1020 hPa
能見度: 16.1公里
天空无云

METAR: KFHR 182353Z AUTO 35006KT 10SM CLR 17/02 A3013 RMK AO2 SLP204 T01670017 10178 20128 58021

时间: 17:22 (00:22 UTC)


TAF: 丢失

超过4000个机场的气象观测和天气预报(METAR&TAF报告)。

可查询的气象台以黄色和红色小点在地图上表示。

将鼠标移到小点上方,可查看气象台名称。

然后点击查看天气观测和预报。

如需切换地图:点击带黑十字的绿色按钮放大地图;点击带横线的绿色按钮缩小地图;或者点击绿色箭头查看邻近地区的地图。


METAR-TAF: